sensor_id;sensor_type;location;lat;lon;timestamp;temperature;humidity
20070;DHT22;10195;50.868;4.382;2023-06-22T00:00:43;21.80;99.90
20070;DHT22;10195;50.868;4.382;2023-06-22T00:03:09;21.80;99.90
20070;DHT22;10195;50.868;4.382;2023-06-22T00:05:34;21.80;99.90
20070;DHT22;10195;50.868;4.382;2023-06-22T00:08:03;21.90;99.90
20070;DHT22;10195;50.868;4.382;2023-06-22T00:10:32;21.90;99.90
20070;DHT22;10195;50.868;4.382;2023-06-22T00:12:58;21.70;99.90
20070;DHT22;10195;50.868;4.382;2023-06-22T00:15:24;21.70;99.90
20070;DHT22;10195;50.868;4.382;2023-06-22T00:17:50;21.60;99.90
20070;DHT22;10195;50.868;4.382;2023-06-22T00:20:16;21.60;99.90
20070;DHT22;10195;50.868;4.382;2023-06-22T00:22:46;21.70;99.90
20070;DHT22;10195;50.868;4.382;2023-06-22T00:25:13;21.60;99.90
20070;DHT22;10195;50.868;4.382;2023-06-22T00:27:39;21.60;99.90
20070;DHT22;10195;50.868;4.382;2023-06-22T00:30:05;21.70;99.90
20070;DHT22;10195;50.868;4.382;2023-06-22T00:32:30;21.70;99.90
20070;DHT22;10195;50.868;4.382;2023-06-22T00:34:56;21.70;99.90
20070;DHT22;10195;50.868;4.382;2023-06-22T00:37:22;21.60;99.90
20070;DHT22;10195;50.868;4.382;2023-06-22T00:39:51;21.60;99.90
20070;DHT22;10195;50.868;4.382;2023-06-22T00:42:17;21.60;99.90
20070;DHT22;10195;50.868;4.382;2023-06-22T00:44:43;21.60;99.90
20070;DHT22;10195;50.868;4.382;2023-06-22T00:47:11;21.70;99.90
20070;DHT22;10195;50.868;4.382;2023-06-22T00:49:38;21.80;99.90
20070;DHT22;10195;50.868;4.382;2023-06-22T00:52:05;21.80;99.90
20070;DHT22;10195;50.868;4.382;2023-06-22T00:54:35;21.70;99.90
20070;DHT22;10195;50.868;4.382;2023-06-22T00:57:02;21.70;99.90
20070;DHT22;10195;50.868;4.382;2023-06-22T00:59:28;21.70;99.90
20070;DHT22;10195;50.868;4.382;2023-06-22T01:01:54;21.80;99.90
20070;DHT22;10195;50.868;4.382;2023-06-22T01:04:20;21.90;99.90
20070;DHT22;10195;50.868;4.382;2023-06-22T01:07:02;22.00;99.90
20070;DHT22;10195;50.868;4.382;2023-06-22T01:09:37;21.90;99.90
20070;DHT22;10195;50.868;4.382;2023-06-22T01:12:07;21.80;99.90
20070;DHT22;10195;50.868;4.382;2023-06-22T01:15:04;21.80;99.90
20070;DHT22;10195;50.868;4.382;2023-06-22T01:17:34;21.90;99.90
20070;DHT22;10195;50.868;4.382;2023-06-22T01:20:00;21.90;99.90
20070;DHT22;10195;50.868;4.382;2023-06-22T01:22:32;21.90;99.90
20070;DHT22;10195;50.868;4.382;2023-06-22T01:25:19;21.80;99.90
20070;DHT22;10195;50.868;4.382;2023-06-22T01:30:41;21.70;99.90
20070;DHT22;10195;50.868;4.382;2023-06-22T01:33:10;21.50;99.90
20070;DHT22;10195;50.868;4.382;2023-06-22T01:35:37;21.40;99.90
20070;DHT22;10195;50.868;4.382;2023-06-22T01:38:03;21.30;99.90
20070;DHT22;10195;50.868;4.382;2023-06-22T01:40:30;21.10;99.90
20070;DHT22;10195;50.868;4.382;2023-06-22T01:42:57;21.00;99.90
20070;DHT22;10195;50.868;4.382;2023-06-22T01:45:24;21.10;99.90
20070;DHT22;10195;50.868;4.382;2023-06-22T01:47:50;21.10;99.90
20070;DHT22;10195;50.868;4.382;2023-06-22T01:50:17;21.10;99.90
20070;DHT22;10195;50.868;4.382;2023-06-22T01:52:42;21.00;99.90
20070;DHT22;10195;50.868;4.382;2023-06-22T01:55:08;21.00;99.90
20070;DHT22;10195;50.868;4.382;2023-06-22T01:57:34;21.00;99.90
20070;DHT22;10195;50.868;4.382;2023-06-22T02:00:04;20.90;99.90
20070;DHT22;10195;50.868;4.382;2023-06-22T02:02:43;20.80;99.90
20070;DHT22;10195;50.868;4.382;2023-06-22T02:05:12;20.70;99.90
20070;DHT22;10195;50.868;4.382;2023-06-22T02:07:47;20.70;99.90
20070;DHT22;10195;50.868;4.382;2023-06-22T02:10:16;20.80;99.90
20070;DHT22;10195;50.868;4.382;2023-06-22T02:12:43;20.80;99.90
20070;DHT22;10195;50.868;4.382;2023-06-22T02:15:10;20.80;99.90
20070;DHT22;10195;50.868;4.382;2023-06-22T02:17:38;20.80;99.90
20070;DHT22;10195;50.868;4.382;2023-06-22T02:20:04;20.70;99.90
20070;DHT22;10195;50.868;4.382;2023-06-22T02:22:34;20.70;99.90
20070;DHT22;10195;50.868;4.382;2023-06-22T02:25:00;20.70;99.90
20070;DHT22;10195;50.868;4.382;2023-06-22T02:27:25;20.70;99.90
20070;DHT22;10195;50.868;4.382;2023-06-22T02:29:51;20.70;99.90
20070;DHT22;10195;50.868;4.382;2023-06-22T02:32:17;20.60;99.90
20070;DHT22;10195;50.868;4.382;2023-06-22T02:34:43;20.60;99.90
20070;DHT22;10195;50.868;4.382;2023-06-22T02:37:13;20.50;99.90
20070;DHT22;10195;50.868;4.382;2023-06-22T02:39:40;20.40;99.90
20070;DHT22;10195;50.868;4.382;2023-06-22T02:42:06;20.40;99.90
20070;DHT22;10195;50.868;4.382;2023-06-22T02:44:32;20.30;99.90
20070;DHT22;10195;50.868;4.382;2023-06-22T02:46:57;20.30;99.90
20070;DHT22;10195;50.868;4.382;2023-06-22T02:49:23;20.30;99.90
20070;DHT22;10195;50.868;4.382;2023-06-22T02:51:49;20.20;99.90
20070;DHT22;10195;50.868;4.382;2023-06-22T02:54:15;20.30;99.90
20070;DHT22;10195;50.868;4.382;2023-06-22T02:56:42;20.30;99.90
20070;DHT22;10195;50.868;4.382;2023-06-22T02:59:09;20.40;99.90
20070;DHT22;10195;50.868;4.382;2023-06-22T03:01:36;20.40;99.90
20070;DHT22;10195;50.868;4.382;2023-06-22T03:04:06;20.30;99.90
20070;DHT22;10195;50.868;4.382;2023-06-22T03:06:31;20.30;99.90
20070;DHT22;10195;50.868;4.382;2023-06-22T03:09:00;20.30;99.90
20070;DHT22;10195;50.868;4.382;2023-06-22T03:11:26;20.30;99.90
20070;DHT22;10195;50.868;4.382;2023-06-22T03:13:52;20.30;99.90
20070;DHT22;10195;50.868;4.382;2023-06-22T03:16:18;20.30;99.90
20070;DHT22;10195;50.868;4.382;2023-06-22T03:18:44;20.30;99.90
20070;DHT22;10195;50.868;4.382;2023-06-22T03:21:10;20.20;99.90
20070;DHT22;10195;50.868;4.382;2023-06-22T03:23:36;20.30;99.90
20070;DHT22;10195;50.868;4.382;2023-06-22T03:26:02;20.20;99.90
20070;DHT22;10195;50.868;4.382;2023-06-22T03:28:27;20.20;99.90
20070;DHT22;10195;50.868;4.382;2023-06-22T03:30:54;20.10;99.90
20070;DHT22;10195;50.868;4.382;2023-06-22T03:33:19;20.10;99.90
20070;DHT22;10195;50.868;4.382;2023-06-22T03:35:45;20.00;99.90
20070;DHT22;10195;50.868;4.382;2023-06-22T03:38:11;19.90;99.90
20070;DHT22;10195;50.868;4.382;2023-06-22T03:40:36;19.90;99.90
20070;DHT22;10195;50.868;4.382;2023-06-22T03:43:02;20.00;99.90
20070;DHT22;10195;50.868;4.382;2023-06-22T03:45:27;20.00;99.90
20070;DHT22;10195;50.868;4.382;2023-06-22T03:47:53;20.10;99.90
20070;DHT22;10195;50.868;4.382;2023-06-22T03:50:19;20.20;99.90
20070;DHT22;10195;50.868;4.382;2023-06-22T03:52:46;20.30;99.90
20070;DHT22;10195;50.868;4.382;2023-06-22T03:55:11;20.40;99.90
20070;DHT22;10195;50.868;4.382;2023-06-22T03:57:37;20.30;99.90
20070;DHT22;10195;50.868;4.382;2023-06-22T04:00:03;20.40;99.90
20070;DHT22;10195;50.868;4.382;2023-06-22T04:02:32;20.40;99.90
20070;DHT22;10195;50.868;4.382;2023-06-22T04:04:57;20.50;99.90
20070;DHT22;10195;50.868;4.382;2023-06-22T04:07:23;20.40;99.90
20070;DHT22;10195;50.868;4.382;2023-06-22T04:09:48;20.40;99.90
20070;DHT22;10195;50.868;4.382;2023-06-22T04:12:14;20.40;99.90
20070;DHT22;10195;50.868;4.382;2023-06-22T04:14:40;20.40;99.90
20070;DHT22;10195;50.868;4.382;2023-06-22T04:17:05;20.40;99.90
20070;DHT22;10195;50.868;4.382;2023-06-22T04:19:31;20.30;99.90
20070;DHT22;10195;50.868;4.382;2023-06-22T04:21:56;20.40;99.90
20070;DHT22;10195;50.868;4.382;2023-06-22T04:24:22;20.50;99.90
20070;DHT22;10195;50.868;4.382;2023-06-22T04:26:48;20.40;99.90
20070;DHT22;10195;50.868;4.382;2023-06-22T04:29:13;20.30;99.90
20070;DHT22;10195;50.868;4.382;2023-06-22T04:31:39;20.30;99.90
20070;DHT22;10195;50.868;4.382;2023-06-22T04:34:07;20.40;99.90
20070;DHT22;10195;50.868;4.382;2023-06-22T04:36:35;20.40;99.90
20070;DHT22;10195;50.868;4.382;2023-06-22T04:39:07;20.50;99.90
20070;DHT22;10195;50.868;4.382;2023-06-22T04:41:38;20.70;99.90
20070;DHT22;10195;50.868;4.382;2023-06-22T04:44:14;20.80;99.90
20070;DHT22;10195;50.868;4.382;2023-06-22T04:46:52;20.80;99.90
20070;DHT22;10195;50.868;4.382;2023-06-22T04:49:20;20.80;99.90
20070;DHT22;10195;50.868;4.382;2023-06-22T04:51:46;20.70;99.90
20070;DHT22;10195;50.868;4.382;2023-06-22T04:54:12;20.60;99.90
20070;DHT22;10195;50.868;4.382;2023-06-22T04:56:37;20.70;99.90
20070;DHT22;10195;50.868;4.382;2023-06-22T04:59:06;20.70;99.90
20070;DHT22;10195;50.868;4.382;2023-06-22T05:01:31;20.90;99.90
20070;DHT22;10195;50.868;4.382;2023-06-22T05:03:57;20.90;99.90
20070;DHT22;10195;50.868;4.382;2023-06-22T05:06:26;20.90;99.90
20070;DHT22;10195;50.868;4.382;2023-06-22T05:08:54;20.90;99.90
20070;DHT22;10195;50.868;4.382;2023-06-22T05:11:28;20.90;99.90
20070;DHT22;10195;50.868;4.382;2023-06-22T05:13:54;21.00;99.90
20070;DHT22;10195;50.868;4.382;2023-06-22T05:16:20;21.10;99.90
20070;DHT22;10195;50.868;4.382;2023-06-22T05:18:55;21.20;99.90
20070;DHT22;10195;50.868;4.382;2023-06-22T05:21:23;21.20;99.90
20070;DHT22;10195;50.868;4.382;2023-06-22T05:23:49;21.30;99.90
20070;DHT22;10195;50.868;4.382;2023-06-22T05:26:15;21.10;99.90
20070;DHT22;10195;50.868;4.382;2023-06-22T05:28:40;21.00;99.90
20070;DHT22;10195;50.868;4.382;2023-06-22T05:31:06;21.10;99.90
20070;DHT22;10195;50.868;4.382;2023-06-22T05:33:32;21.20;99.90
20070;DHT22;10195;50.868;4.382;2023-06-22T05:35:57;21.30;99.90
20070;DHT22;10195;50.868;4.382;2023-06-22T05:38:23;21.20;99.90
20070;DHT22;10195;50.868;4.382;2023-06-22T05:40:48;21.10;99.90
20070;DHT22;10195;50.868;4.382;2023-06-22T05:43:14;21.00;99.90
20070;DHT22;10195;50.868;4.382;2023-06-22T05:45:40;21.00;99.90
20070;DHT22;10195;50.868;4.382;2023-06-22T05:48:05;20.90;99.90
20070;DHT22;10195;50.868;4.382;2023-06-22T05:50:31;20.80;99.90
20070;DHT22;10195;50.868;4.382;2023-06-22T05:52:57;20.80;99.90
20070;DHT22;10195;50.868;4.382;2023-06-22T05:55:22;20.90;99.90
20070;DHT22;10195;50.868;4.382;2023-06-22T05:57:48;20.80;99.90
20070;DHT22;10195;50.868;4.382;2023-06-22T06:00:14;20.60;99.90
20070;DHT22;10195;50.868;4.382;2023-06-22T06:02:40;20.60;99.90
20070;DHT22;10195;50.868;4.382;2023-06-22T06:05:12;20.70;99.90
20070;DHT22;10195;50.868;4.382;2023-06-22T06:07:44;20.50;99.90
20070;DHT22;10195;50.868;4.382;2023-06-22T06:10:10;20.60;99.90
20070;DHT22;10195;50.868;4.382;2023-06-22T06:12:36;20.60;99.90
20070;DHT22;10195;50.868;4.382;2023-06-22T06:15:02;20.40;99.90
20070;DHT22;10195;50.868;4.382;2023-06-22T06:17:28;20.30;99.90
20070;DHT22;10195;50.868;4.382;2023-06-22T06:19:53;20.20;99.90
20070;DHT22;10195;50.868;4.382;2023-06-22T06:22:19;20.30;99.90
20070;DHT22;10195;50.868;4.382;2023-06-22T06:24:47;20.40;99.90
20070;DHT22;10195;50.868;4.382;2023-06-22T06:27:13;20.60;99.90
20070;DHT22;10195;50.868;4.382;2023-06-22T06:29:39;20.70;99.90
20070;DHT22;10195;50.868;4.382;2023-06-22T06:32:04;20.70;99.90
20070;DHT22;10195;50.868;4.382;2023-06-22T06:34:30;20.80;99.90
20070;DHT22;10195;50.868;4.382;2023-06-22T06:36:56;20.90;99.90
20070;DHT22;10195;50.868;4.382;2023-06-22T06:39:21;21.00;99.90
20070;DHT22;10195;50.868;4.382;2023-06-22T06:41:47;21.10;99.90
20070;DHT22;10195;50.868;4.382;2023-06-22T06:44:13;21.00;99.90
20070;DHT22;10195;50.868;4.382;2023-06-22T06:46:38;21.10;99.90
20070;DHT22;10195;50.868;4.382;2023-06-22T06:49:04;21.20;99.90
20070;DHT22;10195;50.868;4.382;2023-06-22T06:51:30;21.20;99.90
20070;DHT22;10195;50.868;4.382;2023-06-22T06:53:55;21.10;99.90
20070;DHT22;10195;50.868;4.382;2023-06-22T06:56:21;21.20;99.90
20070;DHT22;10195;50.868;4.382;2023-06-22T06:58:46;21.30;99.90
20070;DHT22;10195;50.868;4.382;2023-06-22T07:01:12;21.40;99.90
20070;DHT22;10195;50.868;4.382;2023-06-22T07:03:38;21.40;99.90
20070;DHT22;10195;50.868;4.382;2023-06-22T07:06:04;21.30;99.90
20070;DHT22;10195;50.868;4.382;2023-06-22T07:08:30;21.60;99.90
20070;DHT22;10195;50.868;4.382;2023-06-22T07:10:55;21.20;99.90
20070;DHT22;10195;50.868;4.382;2023-06-22T07:13:21;21.30;99.90
20070;DHT22;10195;50.868;4.382;2023-06-22T07:15:47;21.20;99.90
20070;DHT22;10195;50.868;4.382;2023-06-22T07:18:13;21.30;99.90
20070;DHT22;10195;50.868;4.382;2023-06-22T07:20:38;21.30;99.90
20070;DHT22;10195;50.868;4.382;2023-06-22T07:23:04;21.20;99.90
20070;DHT22;10195;50.868;4.382;2023-06-22T07:25:30;21.30;99.90
20070;DHT22;10195;50.868;4.382;2023-06-22T07:28:05;21.40;99.90
20070;DHT22;10195;50.868;4.382;2023-06-22T07:30:31;21.70;99.90
20070;DHT22;10195;50.868;4.382;2023-06-22T07:32:58;21.80;99.90
20070;DHT22;10195;50.868;4.382;2023-06-22T07:35:29;21.90;99.90
20070;DHT22;10195;50.868;4.382;2023-06-22T07:37:55;21.70;99.90
20070;DHT22;10195;50.868;4.382;2023-06-22T07:40:20;21.70;99.90
20070;DHT22;10195;50.868;4.382;2023-06-22T07:42:46;21.70;99.90
20070;DHT22;10195;50.868;4.382;2023-06-22T07:45:13;21.80;99.90
20070;DHT22;10195;50.868;4.382;2023-06-22T07:47:39;21.90;99.90
20070;DHT22;10195;50.868;4.382;2023-06-22T07:50:06;22.10;99.90
20070;DHT22;10195;50.868;4.382;2023-06-22T07:52:32;22.30;99.90
20070;DHT22;10195;50.868;4.382;2023-06-22T07:54:58;22.10;99.90
20070;DHT22;10195;50.868;4.382;2023-06-22T07:57:24;21.90;99.90
20070;DHT22;10195;50.868;4.382;2023-06-22T07:59:57;21.90;99.90
20070;DHT22;10195;50.868;4.382;2023-06-22T08:02:24;21.80;99.90
20070;DHT22;10195;50.868;4.382;2023-06-22T08:04:50;21.90;99.90
20070;DHT22;10195;50.868;4.382;2023-06-22T08:07:15;21.90;99.90
20070;DHT22;10195;50.868;4.382;2023-06-22T08:09:46;21.90;99.90
20070;DHT22;10195;50.868;4.382;2023-06-22T08:12:12;21.60;99.90
20070;DHT22;10195;50.868;4.382;2023-06-22T08:14:38;21.50;99.90
20070;DHT22;10195;50.868;4.382;2023-06-22T08:17:04;21.70;99.90
20070;DHT22;10195;50.868;4.382;2023-06-22T08:19:30;21.80;99.90
20070;DHT22;10195;50.868;4.382;2023-06-22T08:21:56;21.80;99.90
20070;DHT22;10195;50.868;4.382;2023-06-22T08:24:23;21.80;99.90
20070;DHT22;10195;50.868;4.382;2023-06-22T08:26:51;21.60;99.90
20070;DHT22;10195;50.868;4.382;2023-06-22T08:29:17;21.40;99.90
20070;DHT22;10195;50.868;4.382;2023-06-22T08:31:43;21.40;99.90
20070;DHT22;10195;50.868;4.382;2023-06-22T08:34:08;21.30;99.90
20070;DHT22;10195;50.868;4.382;2023-06-22T08:36:34;21.20;99.90
20070;DHT22;10195;50.868;4.382;2023-06-22T08:39:07;21.20;99.90
20070;DHT22;10195;50.868;4.382;2023-06-22T08:41:32;21.20;99.90
20070;DHT22;10195;50.868;4.382;2023-06-22T08:43:58;21.20;99.90
20070;DHT22;10195;50.868;4.382;2023-06-22T08:46:23;21.20;99.90
20070;DHT22;10195;50.868;4.382;2023-06-22T08:48:56;21.30;99.90
20070;DHT22;10195;50.868;4.382;2023-06-22T08:51:23;21.30;99.90
20070;DHT22;10195;50.868;4.382;2023-06-22T08:53:49;21.20;99.90
20070;DHT22;10195;50.868;4.382;2023-06-22T08:56:15;21.20;99.90
20070;DHT22;10195;50.868;4.382;2023-06-22T08:58:40;21.30;99.90
20070;DHT22;10195;50.868;4.382;2023-06-22T09:01:06;21.30;99.90
20070;DHT22;10195;50.868;4.382;2023-06-22T09:03:32;21.30;99.90
20070;DHT22;10195;50.868;4.382;2023-06-22T09:05:58;21.30;99.90
20070;DHT22;10195;50.868;4.382;2023-06-22T09:08:24;21.40;99.90
20070;DHT22;10195;50.868;4.382;2023-06-22T09:10:50;21.70;99.90
20070;DHT22;10195;50.868;4.382;2023-06-22T09:13:15;21.70;99.90
20070;DHT22;10195;50.868;4.382;2023-06-22T09:15:41;21.90;99.90
20070;DHT22;10195;50.868;4.382;2023-06-22T09:18:10;22.00;99.90
20070;DHT22;10195;50.868;4.382;2023-06-22T09:20:36;22.10;99.90
20070;DHT22;10195;50.868;4.382;2023-06-22T09:23:02;22.10;99.90
20070;DHT22;10195;50.868;4.382;2023-06-22T09:25:28;22.30;99.90
20070;DHT22;10195;50.868;4.382;2023-06-22T09:27:53;22.20;99.90
20070;DHT22;10195;50.868;4.382;2023-06-22T09:30:19;22.30;99.90
20070;DHT22;10195;50.868;4.382;2023-06-22T09:32:45;22.40;99.90
20070;DHT22;10195;50.868;4.382;2023-06-22T09:35:11;22.30;99.90
20070;DHT22;10195;50.868;4.382;2023-06-22T09:37:39;22.20;99.90
20070;DHT22;10195;50.868;4.382;2023-06-22T09:40:06;22.10;99.90
20070;DHT22;10195;50.868;4.382;2023-06-22T09:42:36;22.10;99.90
20070;DHT22;10195;50.868;4.382;2023-06-22T09:45:02;21.80;99.90
20070;DHT22;10195;50.868;4.382;2023-06-22T09:47:29;21.70;99.90
20070;DHT22;10195;50.868;4.382;2023-06-22T09:49:55;21.40;99.90
20070;DHT22;10195;50.868;4.382;2023-06-22T09:52:21;21.00;99.90
20070;DHT22;10195;50.868;4.382;2023-06-22T09:54:47;20.90;99.90
20070;DHT22;10195;50.868;4.382;2023-06-22T09:57:13;21.00;99.90
20070;DHT22;10195;50.868;4.382;2023-06-22T09:59:39;20.70;99.90
20070;DHT22;10195;50.868;4.382;2023-06-22T10:02:08;20.40;99.90
20070;DHT22;10195;50.868;4.382;2023-06-22T10:04:34;20.60;99.90
20070;DHT22;10195;50.868;4.382;2023-06-22T10:07:00;20.60;99.90
20070;DHT22;10195;50.868;4.382;2023-06-22T10:09:26;20.40;99.90
20070;DHT22;10195;50.868;4.382;2023-06-22T10:11:52;20.20;99.90
20070;DHT22;10195;50.868;4.382;2023-06-22T10:14:17;20.10;99.90
20070;DHT22;10195;50.868;4.382;2023-06-22T10:16:43;19.40;99.90
20070;DHT22;10195;50.868;4.382;2023-06-22T10:19:09;18.90;99.90
20070;DHT22;10195;50.868;4.382;2023-06-22T10:21:34;18.60;99.90
20070;DHT22;10195;50.868;4.382;2023-06-22T10:24:01;18.60;99.90
20070;DHT22;10195;50.868;4.382;2023-06-22T10:26:32;18.70;99.90
20070;DHT22;10195;50.868;4.382;2023-06-22T10:28:58;18.70;99.90
20070;DHT22;10195;50.868;4.382;2023-06-22T10:31:23;18.60;99.90
20070;DHT22;10195;50.868;4.382;2023-06-22T10:33:49;18.60;99.90
20070;DHT22;10195;50.868;4.382;2023-06-22T10:36:15;18.50;99.90
20070;DHT22;10195;50.868;4.382;2023-06-22T10:38:40;18.50;99.90
20070;DHT22;10195;50.868;4.382;2023-06-22T10:41:07;18.50;99.90
20070;DHT22;10195;50.868;4.382;2023-06-22T10:43:33;18.70;99.90
20070;DHT22;10195;50.868;4.382;2023-06-22T10:45:58;18.90;99.90
20070;DHT22;10195;50.868;4.382;2023-06-22T10:48:24;18.90;99.90
20070;DHT22;10195;50.868;4.382;2023-06-22T10:50:50;18.70;99.90
20070;DHT22;10195;50.868;4.382;2023-06-22T10:53:15;18.90;99.90
20070;DHT22;10195;50.868;4.382;2023-06-22T10:55:41;18.90;99.90
20070;DHT22;10195;50.868;4.382;2023-06-22T10:58:07;18.80;99.90
20070;DHT22;10195;50.868;4.382;2023-06-22T11:00:32;19.10;99.90
20070;DHT22;10195;50.868;4.382;2023-06-22T11:02:58;19.20;99.90
20070;DHT22;10195;50.868;4.382;2023-06-22T11:05:24;19.40;99.90
20070;DHT22;10195;50.868;4.382;2023-06-22T11:07:49;19.50;99.90
20070;DHT22;10195;50.868;4.382;2023-06-22T11:10:16;19.60;99.90
20070;DHT22;10195;50.868;4.382;2023-06-22T11:12:41;19.60;99.90
20070;DHT22;10195;50.868;4.382;2023-06-22T11:15:08;19.50;99.90
20070;DHT22;10195;50.868;4.382;2023-06-22T11:17:34;19.50;99.90
20070;DHT22;10195;50.868;4.382;2023-06-22T11:20:00;19.60;99.90
20070;DHT22;10195;50.868;4.382;2023-06-22T11:22:26;19.70;99.90
20070;DHT22;10195;50.868;4.382;2023-06-22T11:24:52;19.80;99.90
20070;DHT22;10195;50.868;4.382;2023-06-22T11:27:17;19.80;99.90
20070;DHT22;10195;50.868;4.382;2023-06-22T11:29:43;19.70;99.90
20070;DHT22;10195;50.868;4.382;2023-06-22T11:32:09;19.70;99.90
20070;DHT22;10195;50.868;4.382;2023-06-22T11:34:35;19.80;99.90
20070;DHT22;10195;50.868;4.382;2023-06-22T11:37:01;19.80;99.90
20070;DHT22;10195;50.868;4.382;2023-06-22T11:39:26;19.60;99.90
20070;DHT22;10195;50.868;4.382;2023-06-22T11:41:52;19.50;99.90
20070;DHT22;10195;50.868;4.382;2023-06-22T11:44:18;19.40;99.90
20070;DHT22;10195;50.868;4.382;2023-06-22T11:46:44;19.50;99.90
20070;DHT22;10195;50.868;4.382;2023-06-22T11:49:09;19.30;99.90
20070;DHT22;10195;50.868;4.382;2023-06-22T11:51:35;19.20;99.90
20070;DHT22;10195;50.868;4.382;2023-06-22T11:54:00;19.20;99.90
20070;DHT22;10195;50.868;4.382;2023-06-22T11:56:27;19.10;99.90
20070;DHT22;10195;50.868;4.382;2023-06-22T11:58:53;19.10;99.90
20070;DHT22;10195;50.868;4.382;2023-06-22T12:01:19;18.90;99.90
20070;DHT22;10195;50.868;4.382;2023-06-22T12:03:48;18.90;99.90
20070;DHT22;10195;50.868;4.382;2023-06-22T12:06:14;19.10;99.90
20070;DHT22;10195;50.868;4.382;2023-06-22T12:08:40;19.20;99.90
20070;DHT22;10195;50.868;4.382;2023-06-22T12:11:05;19.20;99.90
20070;DHT22;10195;50.868;4.382;2023-06-22T12:13:31;19.20;99.90
20070;DHT22;10195;50.868;4.382;2023-06-22T12:15:56;19.20;99.90
20070;DHT22;10195;50.868;4.382;2023-06-22T12:18:22;19.20;99.90
20070;DHT22;10195;50.868;4.382;2023-06-22T12:20:48;19.20;99.90
20070;DHT22;10195;50.868;4.382;2023-06-22T12:23:15;19.30;99.90
20070;DHT22;10195;50.868;4.382;2023-06-22T12:25:40;19.30;99.90
20070;DHT22;10195;50.868;4.382;2023-06-22T12:28:06;19.10;99.90
20070;DHT22;10195;50.868;4.382;2023-06-22T12:30:35;19.00;99.90
20070;DHT22;10195;50.868;4.382;2023-06-22T12:33:00;19.10;99.90
20070;DHT22;10195;50.868;4.382;2023-06-22T12:35:26;19.00;99.90
20070;DHT22;10195;50.868;4.382;2023-06-22T12:37:51;19.20;99.90
20070;DHT22;10195;50.868;4.382;2023-06-22T12:40:18;18.90;99.90
20070;DHT22;10195;50.868;4.382;2023-06-22T12:42:45;19.00;99.90
20070;DHT22;10195;50.868;4.382;2023-06-22T12:45:10;19.00;99.90
20070;DHT22;10195;50.868;4.382;2023-06-22T12:47:36;19.10;99.90
20070;DHT22;10195;50.868;4.382;2023-06-22T12:50:02;19.20;99.90
20070;DHT22;10195;50.868;4.382;2023-06-22T12:52:30;19.20;99.90
20070;DHT22;10195;50.868;4.382;2023-06-22T12:54:57;19.10;99.90
20070;DHT22;10195;50.868;4.382;2023-06-22T12:57:22;19.20;99.90
20070;DHT22;10195;50.868;4.382;2023-06-22T12:59:49;19.30;99.90
20070;DHT22;10195;50.868;4.382;2023-06-22T13:02:14;19.30;99.90
20070;DHT22;10195;50.868;4.382;2023-06-22T13:04:40;19.30;99.90
20070;DHT22;10195;50.868;4.382;2023-06-22T13:07:06;19.20;99.90
20070;DHT22;10195;50.868;4.382;2023-06-22T13:09:31;19.20;99.90
20070;DHT22;10195;50.868;4.382;2023-06-22T13:11:57;19.10;99.90
20070;DHT22;10195;50.868;4.382;2023-06-22T13:14:23;18.90;99.90
20070;DHT22;10195;50.868;4.382;2023-06-22T13:16:49;19.00;99.90
20070;DHT22;10195;50.868;4.382;2023-06-22T13:19:15;19.20;99.90
20070;DHT22;10195;50.868;4.382;2023-06-22T13:21:41;19.10;99.90
20070;DHT22;10195;50.868;4.382;2023-06-22T13:24:07;19.10;99.90
20070;DHT22;10195;50.868;4.382;2023-06-22T13:26:33;19.00;99.90
20070;DHT22;10195;50.868;4.382;2023-06-22T13:28:59;18.90;99.90
20070;DHT22;10195;50.868;4.382;2023-06-22T13:31:24;18.90;99.90
20070;DHT22;10195;50.868;4.382;2023-06-22T13:33:50;18.90;99.90
20070;DHT22;10195;50.868;4.382;2023-06-22T13:36:17;18.70;99.90
20070;DHT22;10195;50.868;4.382;2023-06-22T13:38:43;18.60;99.90
20070;DHT22;10195;50.868;4.382;2023-06-22T13:41:09;18.50;99.90
20070;DHT22;10195;50.868;4.382;2023-06-22T13:43:34;18.50;99.90
20070;DHT22;10195;50.868;4.382;2023-06-22T13:46:00;18.40;99.90
20070;DHT22;10195;50.868;4.382;2023-06-22T13:48:26;18.60;99.90
20070;DHT22;10195;50.868;4.382;2023-06-22T13:50:53;18.60;99.90
20070;DHT22;10195;50.868;4.382;2023-06-22T13:53:19;18.60;99.90
20070;DHT22;10195;50.868;4.382;2023-06-22T13:55:45;18.40;99.90
20070;DHT22;10195;50.868;4.382;2023-06-22T13:58:10;18.40;99.90
20070;DHT22;10195;50.868;4.382;2023-06-22T14:00:36;18.40;99.90
20070;DHT22;10195;50.868;4.382;2023-06-22T14:03:02;18.40;99.90
20070;DHT22;10195;50.868;4.382;2023-06-22T14:05:27;18.40;99.90
20070;DHT22;10195;50.868;4.382;2023-06-22T14:07:53;18.40;99.90
20070;DHT22;10195;50.868;4.382;2023-06-22T14:10:19;18.40;99.90
20070;DHT22;10195;50.868;4.382;2023-06-22T14:12:45;18.40;99.90
20070;DHT22;10195;50.868;4.382;2023-06-22T14:15:11;18.30;99.90
20070;DHT22;10195;50.868;4.382;2023-06-22T14:17:36;18.40;99.90
20070;DHT22;10195;50.868;4.382;2023-06-22T14:20:02;18.60;99.90
20070;DHT22;10195;50.868;4.382;2023-06-22T14:22:28;18.40;99.90
20070;DHT22;10195;50.868;4.382;2023-06-22T14:24:55;18.60;99.90
20070;DHT22;10195;50.868;4.382;2023-06-22T14:27:23;18.60;99.90
20070;DHT22;10195;50.868;4.382;2023-06-22T14:29:48;18.50;99.90
20070;DHT22;10195;50.868;4.382;2023-06-22T14:32:14;18.50;99.90
20070;DHT22;10195;50.868;4.382;2023-06-22T14:34:43;18.50;99.90
20070;DHT22;10195;50.868;4.382;2023-06-22T14:37:09;18.40;99.90
20070;DHT22;10195;50.868;4.382;2023-06-22T14:39:35;18.20;99.90
20070;DHT22;10195;50.868;4.382;2023-06-22T14:42:01;18.20;99.90
20070;DHT22;10195;50.868;4.382;2023-06-22T14:44:28;18.20;99.90
20070;DHT22;10195;50.868;4.382;2023-06-22T14:46:57;18.20;99.90
20070;DHT22;10195;50.868;4.382;2023-06-22T14:49:23;18.30;99.90
20070;DHT22;10195;50.868;4.382;2023-06-22T14:51:49;18.40;99.90
20070;DHT22;10195;50.868;4.382;2023-06-22T14:54:15;18.50;99.90
20070;DHT22;10195;50.868;4.382;2023-06-22T14:56:40;18.50;99.90
20070;DHT22;10195;50.868;4.382;2023-06-22T14:59:06;18.50;99.90
20070;DHT22;10195;50.868;4.382;2023-06-22T15:01:32;18.50;99.90
20070;DHT22;10195;50.868;4.382;2023-06-22T15:03:57;18.60;99.90
20070;DHT22;10195;50.868;4.382;2023-06-22T15:06:23;18.60;99.90
20070;DHT22;10195;50.868;4.382;2023-06-22T15:08:49;18.70;99.90
20070;DHT22;10195;50.868;4.382;2023-06-22T15:11:14;18.70;99.90
20070;DHT22;10195;50.868;4.382;2023-06-22T15:13:41;18.80;99.90
20070;DHT22;10195;50.868;4.382;2023-06-22T15:16:07;18.80;99.90
20070;DHT22;10195;50.868;4.382;2023-06-22T15:18:33;18.90;99.90
20070;DHT22;10195;50.868;4.382;2023-06-22T15:21:00;18.80;99.90
20070;DHT22;10195;50.868;4.382;2023-06-22T15:23:30;18.90;99.90
20070;DHT22;10195;50.868;4.382;2023-06-22T15:25:57;18.80;99.90
20070;DHT22;10195;50.868;4.382;2023-06-22T15:28:23;18.90;99.90